createdAt,value
2019-01-30T00:00:30.277Z,167.10
2019-01-30T00:05:27.218Z,165.60
2019-01-30T00:10:24.124Z,172.27
2019-01-30T00:15:21.272Z,92.37
2019-01-30T00:20:18.330Z,110.73
2019-01-30T00:25:15.373Z,78.50
2019-01-30T00:30:20.387Z,105.27
2019-01-30T00:35:17.311Z,147.67
2019-01-30T00:40:20.092Z,142.03
2019-01-30T00:45:19.231Z,144.90
2019-01-30T00:50:21.860Z,137.27
2019-01-30T00:55:18.954Z,130.60
2019-01-30T01:00:27.928Z,120.17
2019-01-30T01:05:24.871Z,122.70
2019-01-30T01:10:22.108Z,110.33
2019-01-30T01:15:19.023Z,103.90
2019-01-30T01:20:22.826Z,103.97
2019-01-30T01:25:19.718Z,100.23
2019-01-30T01:30:26.485Z,96.00
2019-01-30T01:35:23.594Z,88.27
2019-01-30T01:40:20.556Z,94.23
2019-01-30T01:45:21.574Z,77.77
2019-01-30T01:50:20.710Z,85.70
2019-01-30T01:55:17.676Z,88.97
2019-01-30T02:00:20.328Z,86.27
2019-01-30T02:05:22.485Z,85.57
2019-01-30T02:10:23.987Z,88.97
2019-01-30T02:15:22.404Z,92.07
2019-01-30T02:20:30.016Z,78.70
2019-01-30T02:25:27.021Z,86.67
2019-01-30T02:30:31.794Z,69.47
2019-01-30T02:35:28.712Z,92.57
2019-01-30T02:40:25.672Z,99.97
2019-01-30T02:45:24.878Z,70.73
2019-01-30T02:50:21.834Z,69.00
2019-01-30T02:55:19.031Z,65.13
2019-01-30T03:00:25.825Z,61.77
2019-01-30T03:05:23.268Z,61.47
2019-01-30T03:10:22.315Z,47.40
2019-01-30T03:15:19.829Z,58.50
2019-01-30T03:20:24.144Z,52.33
2019-01-30T03:25:23.957Z,61.00
2019-01-30T03:30:30.193Z,55.53
2019-01-30T03:35:27.285Z,55.63
2019-01-30T03:40:24.335Z,54.53
2019-01-30T03:45:23.442Z,50.60
2019-01-30T03:50:20.391Z,36.43
2019-01-30T03:55:19.501Z,39.17
2019-01-30T04:00:25.084Z,35.93
2019-01-30T04:05:22.976Z,36.90
2019-01-30T04:10:23.554Z,43.23
2019-01-30T04:15:21.057Z,38.07
2019-01-30T04:20:20.496Z,46.10
2019-01-30T04:25:18.250Z,38.13
2019-01-30T04:30:23.195Z,37.07
2019-01-30T04:35:20.123Z,44.80
2019-01-30T04:40:19.756Z,35.97
2019-01-30T04:45:20.592Z,35.37
2019-01-30T04:50:18.033Z,29.07
2019-01-30T04:55:15.331Z,34.87
2019-01-30T05:00:22.342Z,37.10
2019-01-30T05:05:19.461Z,38.37
2019-01-30T05:10:16.412Z,42.60
2019-01-30T05:15:16.312Z,40.37
2019-01-30T05:20:16.064Z,39.47
2019-01-30T05:25:13.581Z,46.57
2019-01-30T05:30:30.088Z,37.47
2019-01-30T05:35:26.975Z,51.33
2019-01-30T05:40:24.127Z,54.50
2019-01-30T05:45:21.334Z,54.60
2019-01-30T05:50:18.272Z,54.57
2019-01-30T05:55:16.695Z,56.30
2019-01-30T06:00:27.384Z,54.83
2019-01-30T06:05:24.494Z,49.87
2019-01-30T06:10:21.552Z,64.13
2019-01-30T06:15:19.646Z,52.07
2019-01-30T06:20:26.230Z,59.67
2019-01-30T06:25:23.432Z,48.77
2019-01-30T06:30:23.943Z,135.70
2019-01-30T06:35:20.833Z,95.97
2019-01-30T06:40:21.612Z,76.17
2019-01-30T06:45:18.517Z,74.57
2019-01-30T06:50:15.451Z,79.93
2019-01-30T06:55:12.465Z,77.67
2019-01-30T07:00:17.556Z,78.77
2019-01-30T07:05:14.559Z,63.27
2019-01-30T07:10:19.224Z,81.40
2019-01-30T07:15:16.213Z,77.53
2019-01-30T07:20:15.104Z,77.80
2019-01-30T07:25:15.970Z,92.43
2019-01-30T07:30:20.405Z,110.20
2019-01-30T07:35:17.672Z,96.93
2019-01-30T07:40:15.621Z,82.20
2019-01-30T07:45:19.693Z,83.43
2019-01-30T07:50:16.705Z,104.13
2019-01-30T07:55:15.829Z,98.83
2019-01-30T08:00:23.230Z,131.07
2019-01-30T08:05:22.802Z,113.17
2019-01-30T08:10:19.952Z,89.30
2019-01-30T08:15:22.075Z,116.30
2019-01-30T08:20:20.981Z,78.33
2019-01-30T08:25:20.509Z,75.23
2019-01-30T08:30:26.067Z,82.27
2019-01-30T08:35:26.253Z,67.63
2019-01-30T08:40:23.153Z,63.77
2019-01-30T08:45:24.361Z,60.80
2019-01-30T08:50:21.367Z,55.20
2019-01-30T08:55:18.304Z,58.70
2019-01-30T09:00:22.097Z,90.23
2019-01-30T09:05:19.017Z,86.43
2019-01-30T09:10:21.544Z,69.03
2019-01-30T09:15:21.157Z,75.23
2019-01-30T09:20:21.615Z,66.83
2019-01-30T09:25:25.094Z,62.23
2019-01-30T09:30:28.568Z,54.10
2019-01-30T09:35:25.516Z,39.73
2019-01-30T09:40:22.664Z,33.97
2019-01-30T09:45:20.993Z,37.00
2019-01-30T09:50:23.830Z,45.40
2019-01-30T09:55:20.825Z,43.23
2019-01-30T10:00:30.929Z,31.90
2019-01-30T10:05:27.943Z,51.03
2019-01-30T10:10:29.748Z,48.17
2019-01-30T10:15:35.485Z,31.23
2019-01-30T10:20:34.512Z,27.37
2019-01-30T10:25:31.459Z,28.27
2019-01-30T10:30:34.591Z,25.70
2019-01-30T10:35:31.541Z,28.47
2019-01-30T10:40:28.481Z,36.40
2019-01-30T10:45:25.817Z,46.10
2019-01-30T10:50:31.456Z,28.37
2019-01-30T10:55:34.864Z,37.43
2019-01-30T11:00:36.095Z,28.10
2019-01-30T11:05:33.082Z,19.00
2019-01-30T11:10:31.389Z,20.30
2019-01-30T11:15:29.555Z,14.50
2019-01-30T11:20:28.161Z,16.07
2019-01-30T11:25:36.051Z,16.87
2019-01-30T11:30:35.034Z,22.63
2019-01-30T11:35:32.236Z,13.43
2019-01-30T11:40:29.299Z,15.27
2019-01-30T11:45:33.347Z,24.47
2019-01-30T11:50:30.284Z,22.37
2019-01-30T11:55:27.258Z,14.60
2019-01-30T12:00:32.508Z,14.53
2019-01-30T12:05:29.436Z,17.37
2019-01-30T12:10:26.414Z,11.60
2019-01-30T12:20:17.828Z,14.63
2019-01-30T12:25:19.887Z,13.47
2019-01-30T12:30:25.453Z,12.40
2019-01-30T12:35:22.371Z,12.83
2019-01-30T12:40:23.668Z,25.87
2019-01-30T12:45:33.648Z,33.70
2019-01-30T12:50:30.661Z,19.43
2019-01-30T12:55:29.535Z,23.40
2019-01-30T13:00:31.284Z,21.27
2019-01-30T13:05:28.825Z,13.67
2019-01-30T13:10:25.843Z,12.57
2019-01-30T13:15:27.783Z,9.07
2019-01-30T13:20:24.681Z,11.40
2019-01-30T13:25:25.709Z,12.33
2019-01-30T13:30:27.158Z,14.23
2019-01-30T13:35:24.256Z,8.67
2019-01-30T13:40:28.589Z,18.33
2019-01-30T13:45:26.689Z,25.20
2019-01-30T13:50:26.139Z,15.80
2019-01-30T13:55:23.058Z,18.67
2019-01-30T14:00:27.243Z,15.63
2019-01-30T14:05:24.260Z,15.33
2019-01-30T14:10:21.388Z,21.97
2019-01-30T14:15:30.630Z,21.47
2019-01-30T14:20:27.584Z,19.00
2019-01-30T14:25:24.622Z,29.50
2019-01-30T14:30:31.307Z,22.17
2019-01-30T14:35:30.328Z,28.80
2019-01-30T14:40:28.387Z,40.37
2019-01-30T14:45:25.293Z,69.27
2019-01-30T14:50:24.873Z,27.03
2019-01-30T14:55:22.303Z,40.47
2019-01-30T15:00:32.797Z,85.33
2019-01-30T15:05:29.789Z,88.80
2019-01-30T15:10:28.986Z,143.77
2019-01-30T15:15:31.241Z,183.63
2019-01-30T15:20:31.174Z,125.23
2019-01-30T15:25:28.379Z,100.53
2019-01-30T15:30:32.025Z,140.27
2019-01-30T15:35:33.590Z,104.43
2019-01-30T15:40:29.621Z,117.43
2019-01-30T15:45:26.511Z,101.17
2019-01-30T15:50:33.300Z,109.23
2019-01-30T15:55:30.178Z,123.27
2019-01-30T16:00:48.734Z,70.47
2019-01-30T16:05:45.789Z,89.57
2019-01-30T16:10:42.830Z,158.57
2019-01-30T16:15:53.717Z,134.73
2019-01-30T16:20:50.721Z,119.57
2019-01-30T16:25:47.825Z,121.77
2019-01-30T16:30:44.788Z,112.30
2019-01-30T16:35:41.869Z,182.33
2019-01-30T16:40:39.755Z,180.10
2019-01-30T16:45:36.909Z,108.07
2019-01-30T16:50:34.449Z,129.47
2019-01-30T16:55:31.436Z,156.40
2019-01-30T17:00:31.673Z,114.43
2019-01-30T17:05:29.545Z,134.00
2019-01-30T17:10:26.562Z,104.57
2019-01-30T17:15:31.381Z,112.13
2019-01-30T17:20:31.899Z,105.80
2019-01-30T17:25:29.054Z,114.20
2019-01-30T17:30:45.757Z,98.90
2019-01-30T17:35:42.715Z,110.13
2019-01-30T17:40:40.496Z,101.20
2019-01-30T17:45:37.421Z,95.90
2019-01-30T17:50:34.388Z,92.33
2019-01-30T17:55:31.284Z,88.97
2019-01-30T18:00:40.932Z,101.20
2019-01-30T18:05:37.856Z,246.20
2019-01-30T18:10:34.808Z,108.93
2019-01-30T18:15:32.361Z,122.43
2019-01-30T18:20:29.326Z,118.90
2019-01-30T18:25:26.307Z,81.87
2019-01-30T18:30:24.268Z,79.77
2019-01-30T18:35:21.388Z,122.00
2019-01-30T18:40:32.685Z,116.83
2019-01-30T18:45:31.002Z,103.77
2019-01-30T18:50:29.011Z,84.80
2019-01-30T18:55:25.925Z,80.77
2019-01-30T19:00:38.584Z,80.53
2019-01-30T19:05:35.719Z,81.93
2019-01-30T19:10:32.660Z,84.37
2019-01-30T19:15:30.396Z,72.30
2019-01-30T19:20:42.101Z,83.53
2019-01-30T19:25:39.318Z,78.13
2019-01-30T19:30:36.241Z,72.23
2019-01-30T19:35:33.173Z,76.60
2019-01-30T19:40:30.125Z,75.73
2019-01-30T19:45:27.253Z,79.27
2019-01-30T19:50:29.469Z,76.33
2019-01-30T19:55:26.584Z,94.50
2019-01-30T20:00:36.144Z,82.50
2019-01-30T20:05:33.067Z,93.73
2019-01-30T20:10:35.492Z,97.73
2019-01-30T20:15:32.590Z,71.67
2019-01-30T20:20:29.921Z,74.27
2019-01-30T20:25:43.535Z,62.77
2019-01-30T20:30:39.383Z,71.23
2019-01-30T20:35:36.399Z,490.43
2019-01-30T20:40:33.365Z,83.20
2019-01-30T20:45:33.795Z,82.93
2019-01-30T20:50:30.309Z,104.33
2019-01-30T20:55:27.359Z,98.30
2019-01-30T21:00:31.117Z,70.53
2019-01-30T21:05:28.109Z,75.80
2019-01-30T21:10:32.487Z,63.37
2019-01-30T21:15:29.386Z,73.77
2019-01-30T21:20:26.359Z,64.90
2019-01-30T21:25:23.265Z,85.20
2019-01-30T21:30:35.582Z,74.77
2019-01-30T21:35:32.497Z,91.97
2019-01-30T21:40:29.434Z,128.23
2019-01-30T21:45:26.751Z,81.07
2019-01-30T21:50:23.703Z,80.10
2019-01-30T21:55:23.416Z,84.80
2019-01-30T22:00:26.106Z,79.63
2019-01-30T22:05:23.018Z,79.77
2019-01-30T22:10:24.764Z,79.03
2019-01-30T22:15:21.969Z,79.53
2019-01-30T22:20:24.159Z,73.73
2019-01-30T22:25:24.150Z,77.83
2019-01-30T22:30:32.375Z,69.67
2019-01-30T22:35:29.268Z,70.03
2019-01-30T22:40:26.266Z,73.53
2019-01-30T22:45:23.387Z,75.23
2019-01-30T22:50:20.909Z,66.90
2019-01-30T22:55:20.520Z,78.73
2019-01-30T23:00:52.389Z,90.00
2019-01-30T23:06:17.404Z,90.30
2019-01-30T23:11:22.635Z,83.77
2019-01-30T23:16:36.433Z,88.80
2019-01-30T23:21:41.789Z,86.93
2019-01-30T23:26:46.829Z,77.70
2019-01-30T23:32:07.116Z,83.63
2019-01-30T23:37:30.394Z,77.57
2019-01-30T23:43:01.753Z,85.50
2019-01-30T23:48:23.893Z,87.20
2019-01-30T23:53:43.977Z,83.40
2019-01-30T23:59:11.800Z,69.07
